sensor_id;sensor_type;location;lat;lon;timestamp;temperature;humidity
10417;DHT22;62605;49.432;8.680;2023-08-12T00:02:59;22.40;99.90
10417;DHT22;62605;49.432;8.680;2023-08-12T00:05:41;22.30;99.90
10417;DHT22;62605;49.432;8.680;2023-08-12T00:08:29;22.40;99.90
10417;DHT22;62605;49.432;8.680;2023-08-12T00:10:57;22.30;99.90
10417;DHT22;62605;49.432;8.680;2023-08-12T00:13:24;22.20;99.90
10417;DHT22;62605;49.432;8.680;2023-08-12T00:15:52;22.10;99.90
10417;DHT22;62605;49.432;8.680;2023-08-12T00:18:22;21.90;99.90
10417;DHT22;62605;49.432;8.680;2023-08-12T00:20:53;21.70;99.90
10417;DHT22;62605;49.432;8.680;2023-08-12T00:23:21;21.60;99.90
10417;DHT22;62605;49.432;8.680;2023-08-12T00:25:50;21.50;99.90
10417;DHT22;62605;49.432;8.680;2023-08-12T00:28:18;21.40;99.90
10417;DHT22;62605;49.432;8.680;2023-08-12T00:40:40;21.70;99.90
10417;DHT22;62605;49.432;8.680;2023-08-12T00:43:09;21.70;99.90
10417;DHT22;62605;49.432;8.680;2023-08-12T00:45:37;21.60;99.90
10417;DHT22;62605;49.432;8.680;2023-08-12T00:48:06;21.60;99.90
10417;DHT22;62605;49.432;8.680;2023-08-12T00:50:41;21.50;99.90
10417;DHT22;62605;49.432;8.680;2023-08-12T00:53:30;21.60;99.90
10417;DHT22;62605;49.432;8.680;2023-08-12T00:56:01;21.50;99.90
10417;DHT22;62605;49.432;8.680;2023-08-12T01:01:31;21.50;99.90
10417;DHT22;62605;49.432;8.680;2023-08-12T01:07:49;21.90;74.30
10417;DHT22;62605;49.432;8.680;2023-08-12T01:16:46;22.00;1.00
10417;DHT22;62605;49.432;8.680;2023-08-12T01:20:24;21.80;99.90
10417;DHT22;62605;49.432;8.680;2023-08-12T01:23:22;21.70;99.90
10417;DHT22;62605;49.432;8.680;2023-08-12T01:26:29;21.50;99.90
10417;DHT22;62605;49.432;8.680;2023-08-12T01:29:16;21.50;1.00
10417;DHT22;62605;49.432;8.680;2023-08-12T01:31:48;21.30;1.00
10417;DHT22;62605;49.432;8.680;2023-08-12T01:34:25;21.10;99.90
10417;DHT22;62605;49.432;8.680;2023-08-12T01:40:24;20.80;1.00
10417;DHT22;62605;49.432;8.680;2023-08-12T01:42:54;20.70;1.00
10417;DHT22;62605;49.432;8.680;2023-08-12T01:45:25;20.70;1.00
10417;DHT22;62605;49.432;8.680;2023-08-12T01:50:42;20.70;1.00
10417;DHT22;62605;49.432;8.680;2023-08-12T01:53:17;20.70;1.00
10417;DHT22;62605;49.432;8.680;2023-08-12T01:55:47;20.70;1.00
10417;DHT22;62605;49.432;8.680;2023-08-12T01:58:16;20.70;1.00
10417;DHT22;62605;49.432;8.680;2023-08-12T02:00:44;20.60;55.30
10417;DHT22;62605;49.432;8.680;2023-08-12T02:03:11;20.70;1.00
10417;DHT22;62605;49.432;8.680;2023-08-12T02:05:38;20.70;1.00
10417;DHT22;62605;49.432;8.680;2023-08-12T02:08:07;20.70;1.00
10417;DHT22;62605;49.432;8.680;2023-08-12T02:10:35;20.70;1.00
10417;DHT22;62605;49.432;8.680;2023-08-12T02:13:08;20.80;99.90
10417;DHT22;62605;49.432;8.680;2023-08-12T02:15:39;20.70;1.00
10417;DHT22;62605;49.432;8.680;2023-08-12T02:18:08;20.70;1.00
10417;DHT22;62605;49.432;8.680;2023-08-12T02:20:36;20.70;99.90
10417;DHT22;62605;49.432;8.680;2023-08-12T02:23:08;20.70;99.90
10417;DHT22;62605;49.432;8.680;2023-08-12T02:25:36;20.60;99.90
10417;DHT22;62605;49.432;8.680;2023-08-12T02:28:15;20.60;30.00
10417;DHT22;62605;49.432;8.680;2023-08-12T02:34:52;20.50;1.00
10417;DHT22;62605;49.432;8.680;2023-08-12T02:37:20;20.40;1.00
10417;DHT22;62605;49.432;8.680;2023-08-12T02:39:47;20.40;99.90
10417;DHT22;62605;49.432;8.680;2023-08-12T02:42:15;20.40;99.90
10417;DHT22;62605;49.432;8.680;2023-08-12T02:44:44;20.40;63.00
10417;DHT22;62605;49.432;8.680;2023-08-12T02:47:12;20.40;99.90
10417;DHT22;62605;49.432;8.680;2023-08-12T02:49:48;20.30;1.00
10417;DHT22;62605;49.432;8.680;2023-08-12T02:52:16;20.30;1.00
10417;DHT22;62605;49.432;8.680;2023-08-12T02:54:43;20.20;1.00
10417;DHT22;62605;49.432;8.680;2023-08-12T02:57:11;20.20;99.90
10417;DHT22;62605;49.432;8.680;2023-08-12T02:59:39;20.20;99.90
10417;DHT22;62605;49.432;8.680;2023-08-12T03:02:09;20.20;1.00
10417;DHT22;62605;49.432;8.680;2023-08-12T03:04:37;20.20;99.90
10417;DHT22;62605;49.432;8.680;2023-08-12T03:07:05;20.10;1.00
10417;DHT22;62605;49.432;8.680;2023-08-12T03:09:33;20.10;1.00
10417;DHT22;62605;49.432;8.680;2023-08-12T03:12:00;20.20;1.00
10417;DHT22;62605;49.432;8.680;2023-08-12T03:14:29;20.20;99.90
10417;DHT22;62605;49.432;8.680;2023-08-12T03:16:57;20.10;1.00
10417;DHT22;62605;49.432;8.680;2023-08-12T03:19:29;20.10;1.00
10417;DHT22;62605;49.432;8.680;2023-08-12T03:21:57;20.00;99.90
10417;DHT22;62605;49.432;8.680;2023-08-12T03:27:19;19.90;1.00
10417;DHT22;62605;49.432;8.680;2023-08-12T03:46:25;20.00;99.90
10417;DHT22;62605;49.432;8.680;2023-08-12T03:49:41;20.10;99.90
10417;DHT22;62605;49.432;8.680;2023-08-12T03:54:46;20.10;99.90
10417;DHT22;62605;49.432;8.680;2023-08-12T03:57:13;20.20;99.90
10417;DHT22;62605;49.432;8.680;2023-08-12T03:59:59;20.20;99.90
10417;DHT22;62605;49.432;8.680;2023-08-12T04:02:39;20.20;99.90
10417;DHT22;62605;49.432;8.680;2023-08-12T04:05:17;20.20;99.90
10417;DHT22;62605;49.432;8.680;2023-08-12T04:07:45;20.30;99.90
10417;DHT22;62605;49.432;8.680;2023-08-12T04:10:12;20.30;99.90
10417;DHT22;62605;49.432;8.680;2023-08-12T04:12:45;20.30;99.90
10417;DHT22;62605;49.432;8.680;2023-08-12T04:15:13;20.40;54.30
10417;DHT22;62605;49.432;8.680;2023-08-12T04:23:46;20.40;99.90
10417;DHT22;62605;49.432;8.680;2023-08-12T04:26:21;20.50;99.90
10417;DHT22;62605;49.432;8.680;2023-08-12T04:28:48;20.50;1.00
10417;DHT22;62605;49.432;8.680;2023-08-12T04:31:16;20.50;99.90
10417;DHT22;62605;49.432;8.680;2023-08-12T04:34:13;20.50;99.90
10417;DHT22;62605;49.432;8.680;2023-08-12T04:42:58;20.50;99.90
10417;DHT22;62605;49.432;8.680;2023-08-12T04:45:58;20.60;99.90
10417;DHT22;62605;49.432;8.680;2023-08-12T04:54:26;20.50;99.90
10417;DHT22;62605;49.432;8.680;2023-08-12T04:56:53;20.50;99.90
10417;DHT22;62605;49.432;8.680;2023-08-12T04:59:23;20.50;99.90
10417;DHT22;62605;49.432;8.680;2023-08-12T05:01:50;20.60;99.90
10417;DHT22;62605;49.432;8.680;2023-08-12T05:04:17;20.60;99.90
10417;DHT22;62605;49.432;8.680;2023-08-12T05:06:44;20.50;99.90
10417;DHT22;62605;49.432;8.680;2023-08-12T05:09:11;20.60;99.90
10417;DHT22;62605;49.432;8.680;2023-08-12T05:11:39;20.60;99.90
10417;DHT22;62605;49.432;8.680;2023-08-12T05:14:06;20.60;99.90
10417;DHT22;62605;49.432;8.680;2023-08-12T05:16:35;20.70;99.90
10417;DHT22;62605;49.432;8.680;2023-08-12T05:19:02;20.70;99.90
10417;DHT22;62605;49.432;8.680;2023-08-12T05:21:30;20.70;99.90
10417;DHT22;62605;49.432;8.680;2023-08-12T05:23:57;20.70;99.90
10417;DHT22;62605;49.432;8.680;2023-08-12T05:26:24;20.80;99.90
10417;DHT22;62605;49.432;8.680;2023-08-12T05:28:51;20.70;99.90
10417;DHT22;62605;49.432;8.680;2023-08-12T05:31:18;20.70;99.90
10417;DHT22;62605;49.432;8.680;2023-08-12T05:33:46;20.70;99.90
10417;DHT22;62605;49.432;8.680;2023-08-12T05:36:13;20.70;99.90
10417;DHT22;62605;49.432;8.680;2023-08-12T05:38:42;20.70;99.90
10417;DHT22;62605;49.432;8.680;2023-08-12T05:41:09;20.70;99.90
10417;DHT22;62605;49.432;8.680;2023-08-12T05:43:36;20.70;99.90
10417;DHT22;62605;49.432;8.680;2023-08-12T05:46:03;20.80;99.90
10417;DHT22;62605;49.432;8.680;2023-08-12T05:48:30;20.70;99.90
10417;DHT22;62605;49.432;8.680;2023-08-12T05:50:58;20.70;99.90
10417;DHT22;62605;49.432;8.680;2023-08-12T05:53:25;20.70;99.90
10417;DHT22;62605;49.432;8.680;2023-08-12T05:55:52;20.70;99.90
10417;DHT22;62605;49.432;8.680;2023-08-12T05:58:19;20.70;99.90
10417;DHT22;62605;49.432;8.680;2023-08-12T06:00:47;20.80;99.90
10417;DHT22;62605;49.432;8.680;2023-08-12T06:03:14;20.80;99.90
10417;DHT22;62605;49.432;8.680;2023-08-12T06:05:41;20.70;99.90
10417;DHT22;62605;49.432;8.680;2023-08-12T06:08:11;20.70;99.90
10417;DHT22;62605;49.432;8.680;2023-08-12T06:10:38;20.70;99.90
10417;DHT22;62605;49.432;8.680;2023-08-12T06:13:05;20.60;99.90
10417;DHT22;62605;49.432;8.680;2023-08-12T06:15:32;20.70;99.90
10417;DHT22;62605;49.432;8.680;2023-08-12T06:18:00;20.80;99.90
10417;DHT22;62605;49.432;8.680;2023-08-12T06:20:27;21.00;99.90
10417;DHT22;62605;49.432;8.680;2023-08-12T06:22:55;21.30;1.00
10417;DHT22;62605;49.432;8.680;2023-08-12T06:25:24;21.40;1.00
10417;DHT22;62605;49.432;8.680;2023-08-12T06:27:51;21.40;1.00
10417;DHT22;62605;49.432;8.680;2023-08-12T06:30:18;21.50;99.90
10417;DHT22;62605;49.432;8.680;2023-08-12T06:32:45;21.50;1.00
10417;DHT22;62605;49.432;8.680;2023-08-12T06:35:12;21.60;99.90
10417;DHT22;62605;49.432;8.680;2023-08-12T06:37:39;21.70;99.90
10417;DHT22;62605;49.432;8.680;2023-08-12T06:40:08;21.80;99.90
10417;DHT22;62605;49.432;8.680;2023-08-12T06:42:36;21.80;99.90
10417;DHT22;62605;49.432;8.680;2023-08-12T06:45:04;21.80;99.90
10417;DHT22;62605;49.432;8.680;2023-08-12T06:47:32;21.80;99.90
10417;DHT22;62605;49.432;8.680;2023-08-12T06:49:59;21.80;99.90
10417;DHT22;62605;49.432;8.680;2023-08-12T06:52:26;22.00;1.00
10417;DHT22;62605;49.432;8.680;2023-08-12T06:54:53;22.30;99.90
10417;DHT22;62605;49.432;8.680;2023-08-12T06:57:20;22.60;94.90
10417;DHT22;62605;49.432;8.680;2023-08-12T06:59:49;22.60;99.90
10417;DHT22;62605;49.432;8.680;2023-08-12T07:02:16;22.70;1.00
10417;DHT22;62605;49.432;8.680;2023-08-12T07:04:43;22.70;1.00
10417;DHT22;62605;49.432;8.680;2023-08-12T07:07:10;22.60;1.00
10417;DHT22;62605;49.432;8.680;2023-08-12T07:09:37;22.60;1.00
10417;DHT22;62605;49.432;8.680;2023-08-12T07:12:05;22.60;1.00
10417;DHT22;62605;49.432;8.680;2023-08-12T07:14:32;22.80;1.00
10417;DHT22;62605;49.432;8.680;2023-08-12T07:17:01;23.00;99.90
10417;DHT22;62605;49.432;8.680;2023-08-12T07:19:28;23.10;99.90
10417;DHT22;62605;49.432;8.680;2023-08-12T07:21:55;23.20;99.90
10417;DHT22;62605;49.432;8.680;2023-08-12T07:24:22;23.40;99.90
10417;DHT22;62605;49.432;8.680;2023-08-12T07:26:49;23.50;99.90
10417;DHT22;62605;49.432;8.680;2023-08-12T07:29:19;23.50;99.90
10417;DHT22;62605;49.432;8.680;2023-08-12T07:31:47;23.30;99.90
10417;DHT22;62605;49.432;8.680;2023-08-12T07:34:15;23.10;99.90
10417;DHT22;62605;49.432;8.680;2023-08-12T07:36:42;22.90;99.90
10417;DHT22;62605;49.432;8.680;2023-08-12T07:39:10;22.90;99.90
10417;DHT22;62605;49.432;8.680;2023-08-12T07:41:37;23.00;99.90
10417;DHT22;62605;49.432;8.680;2023-08-12T07:44:05;23.10;99.90
10417;DHT22;62605;49.432;8.680;2023-08-12T07:46:32;23.20;99.90
10417;DHT22;62605;49.432;8.680;2023-08-12T07:48:59;23.40;99.90
10417;DHT22;62605;49.432;8.680;2023-08-12T07:51:28;23.30;99.90
10417;DHT22;62605;49.432;8.680;2023-08-12T07:53:55;23.20;99.90
10417;DHT22;62605;49.432;8.680;2023-08-12T07:56:22;23.30;99.90
10417;DHT22;62605;49.432;8.680;2023-08-12T07:58:50;23.20;99.90
10417;DHT22;62605;49.432;8.680;2023-08-12T08:01:22;23.20;99.90
10417;DHT22;62605;49.432;8.680;2023-08-12T08:03:51;23.10;99.90
10417;DHT22;62605;49.432;8.680;2023-08-12T08:06:20;23.60;99.90
10417;DHT22;62605;49.432;8.680;2023-08-12T08:08:53;23.90;79.00
10417;DHT22;62605;49.432;8.680;2023-08-12T08:11:21;24.10;14.20
10417;DHT22;62605;49.432;8.680;2023-08-12T08:13:48;24.00;1.00
10417;DHT22;62605;49.432;8.680;2023-08-12T08:16:16;24.10;1.00
10417;DHT22;62605;49.432;8.680;2023-08-12T08:18:43;24.20;1.00
10417;DHT22;62605;49.432;8.680;2023-08-12T08:21:10;24.30;1.00
10417;DHT22;62605;49.432;8.680;2023-08-12T08:23:40;24.50;1.00
10417;DHT22;62605;49.432;8.680;2023-08-12T08:26:08;24.50;1.00
10417;DHT22;62605;49.432;8.680;2023-08-12T08:28:37;24.50;1.00
10417;DHT22;62605;49.432;8.680;2023-08-12T08:31:04;24.50;1.00
10417;DHT22;62605;49.432;8.680;2023-08-12T08:33:31;24.50;1.00
10417;DHT22;62605;49.432;8.680;2023-08-12T08:35:58;24.50;1.00
10417;DHT22;62605;49.432;8.680;2023-08-12T08:38:26;24.50;1.00
10417;DHT22;62605;49.432;8.680;2023-08-12T08:40:53;24.70;1.00
10417;DHT22;62605;49.432;8.680;2023-08-12T08:43:21;24.80;1.00
10417;DHT22;62605;49.432;8.680;2023-08-12T08:45:50;25.00;1.00
10417;DHT22;62605;49.432;8.680;2023-08-12T08:48:19;25.00;1.00
10417;DHT22;62605;49.432;8.680;2023-08-12T08:50:48;25.30;99.90
10417;DHT22;62605;49.432;8.680;2023-08-12T08:53:17;25.70;99.90
10417;DHT22;62605;49.432;8.680;2023-08-12T08:55:45;25.80;99.90
10417;DHT22;62605;49.432;8.680;2023-08-12T08:58:13;25.80;99.90
10417;DHT22;62605;49.432;8.680;2023-08-12T09:00:42;25.60;99.90
10417;DHT22;62605;49.432;8.680;2023-08-12T09:03:10;26.10;99.90
10417;DHT22;62605;49.432;8.680;2023-08-12T09:05:39;26.20;99.90
10417;DHT22;62605;49.432;8.680;2023-08-12T09:08:07;26.40;99.90
10417;DHT22;62605;49.432;8.680;2023-08-12T09:10:38;26.40;99.90
10417;DHT22;62605;49.432;8.680;2023-08-12T09:13:06;26.20;99.90
10417;DHT22;62605;49.432;8.680;2023-08-12T09:15:34;26.10;99.90
10417;DHT22;62605;49.432;8.680;2023-08-12T09:18:04;26.00;99.90
10417;DHT22;62605;49.432;8.680;2023-08-12T09:20:32;26.20;99.90
10417;DHT22;62605;49.432;8.680;2023-08-12T09:23:00;26.10;99.90
10417;DHT22;62605;49.432;8.680;2023-08-12T09:25:28;26.30;99.90
10417;DHT22;62605;49.432;8.680;2023-08-12T09:27:58;26.60;99.90
10417;DHT22;62605;49.432;8.680;2023-08-12T09:30:29;27.00;99.90
10417;DHT22;62605;49.432;8.680;2023-08-12T09:33:00;26.90;91.60
10417;DHT22;62605;49.432;8.680;2023-08-12T09:35:34;26.60;44.50
10417;DHT22;62605;49.432;8.680;2023-08-12T09:38:04;26.40;23.40
10417;DHT22;62605;49.432;8.680;2023-08-12T09:40:32;26.40;27.30
10417;DHT22;62605;49.432;8.680;2023-08-12T09:43:00;26.40;33.10
10417;DHT22;62605;49.432;8.680;2023-08-12T09:45:28;26.30;23.10
10417;DHT22;62605;49.432;8.680;2023-08-12T09:47:55;26.20;30.50
10417;DHT22;62605;49.432;8.680;2023-08-12T09:50:23;26.80;1.00
10417;DHT22;62605;49.432;8.680;2023-08-12T09:52:54;27.00;1.00
10417;DHT22;62605;49.432;8.680;2023-08-12T09:55:22;27.20;1.00
10417;DHT22;62605;49.432;8.680;2023-08-12T09:57:51;27.20;1.00
10417;DHT22;62605;49.432;8.680;2023-08-12T10:00:20;27.50;1.00
10417;DHT22;62605;49.432;8.680;2023-08-12T10:02:48;27.60;1.00
10417;DHT22;62605;49.432;8.680;2023-08-12T10:05:21;27.90;1.00
10417;DHT22;62605;49.432;8.680;2023-08-12T10:07:49;27.80;1.00
10417;DHT22;62605;49.432;8.680;2023-08-12T10:10:19;27.90;1.00
10417;DHT22;62605;49.432;8.680;2023-08-12T10:12:48;27.30;1.00
10417;DHT22;62605;49.432;8.680;2023-08-12T10:15:16;27.10;1.00
10417;DHT22;62605;49.432;8.680;2023-08-12T10:17:43;27.00;1.00
10417;DHT22;62605;49.432;8.680;2023-08-12T10:20:14;26.90;1.00
10417;DHT22;62605;49.432;8.680;2023-08-12T10:22:42;27.00;1.00
10417;DHT22;62605;49.432;8.680;2023-08-12T10:25:09;27.10;1.00
10417;DHT22;62605;49.432;8.680;2023-08-12T10:27:41;27.20;1.00
10417;DHT22;62605;49.432;8.680;2023-08-12T10:30:09;27.10;1.00
10417;DHT22;62605;49.432;8.680;2023-08-12T10:32:37;26.90;1.00
10417;DHT22;62605;49.432;8.680;2023-08-12T10:35:07;26.90;1.00
10417;DHT22;62605;49.432;8.680;2023-08-12T10:37:35;27.00;1.00
10417;DHT22;62605;49.432;8.680;2023-08-12T10:40:03;27.10;1.00
10417;DHT22;62605;49.432;8.680;2023-08-12T10:42:44;26.80;1.00
10417;DHT22;62605;49.432;8.680;2023-08-12T10:45:12;26.90;1.00
10417;DHT22;62605;49.432;8.680;2023-08-12T10:47:41;27.20;1.00
10417;DHT22;62605;49.432;8.680;2023-08-12T10:50:19;27.50;1.00
10417;DHT22;62605;49.432;8.680;2023-08-12T10:52:47;27.70;1.00
10417;DHT22;62605;49.432;8.680;2023-08-12T10:55:22;28.10;1.00
10417;DHT22;62605;49.432;8.680;2023-08-12T10:57:51;28.30;1.00
10417;DHT22;62605;49.432;8.680;2023-08-12T11:00:20;28.40;1.00
10417;DHT22;62605;49.432;8.680;2023-08-12T11:02:50;28.50;1.00
10417;DHT22;62605;49.432;8.680;2023-08-12T11:05:19;28.20;1.00
10417;DHT22;62605;49.432;8.680;2023-08-12T11:07:47;28.00;1.00
10417;DHT22;62605;49.432;8.680;2023-08-12T11:10:16;27.80;1.00
10417;DHT22;62605;49.432;8.680;2023-08-12T11:12:52;27.50;1.00
10417;DHT22;62605;49.432;8.680;2023-08-12T11:15:29;27.20;1.00
10417;DHT22;62605;49.432;8.680;2023-08-12T11:17:59;26.70;1.00
10417;DHT22;62605;49.432;8.680;2023-08-12T11:20:28;26.50;1.00
10417;DHT22;62605;49.432;8.680;2023-08-12T11:22:56;26.30;1.00
10417;DHT22;62605;49.432;8.680;2023-08-12T11:25:24;26.00;1.00
10417;DHT22;62605;49.432;8.680;2023-08-12T11:27:53;25.10;1.00
10417;DHT22;62605;49.432;8.680;2023-08-12T11:30:21;24.10;1.00
10417;DHT22;62605;49.432;8.680;2023-08-12T11:32:50;23.70;1.00
10417;DHT22;62605;49.432;8.680;2023-08-12T11:35:18;23.20;1.00
10417;DHT22;62605;49.432;8.680;2023-08-12T11:37:47;22.80;99.90
10417;DHT22;62605;49.432;8.680;2023-08-12T11:40:17;22.40;1.00
10417;DHT22;62605;49.432;8.680;2023-08-12T11:42:46;22.10;1.00
10417;DHT22;62605;49.432;8.680;2023-08-12T11:45:16;22.00;99.90
10417;DHT22;62605;49.432;8.680;2023-08-12T11:47:45;21.90;99.90
10417;DHT22;62605;49.432;8.680;2023-08-12T11:50:18;21.80;99.90
10417;DHT22;62605;49.432;8.680;2023-08-12T11:52:46;21.70;99.90
10417;DHT22;62605;49.432;8.680;2023-08-12T11:55:13;21.50;99.90
10417;DHT22;62605;49.432;8.680;2023-08-12T11:57:41;21.40;99.90
10417;DHT22;62605;49.432;8.680;2023-08-12T12:00:10;21.40;99.90
10417;DHT22;62605;49.432;8.680;2023-08-12T12:02:45;21.40;99.90
10417;DHT22;62605;49.432;8.680;2023-08-12T12:05:14;21.40;99.90
10417;DHT22;62605;49.432;8.680;2023-08-12T12:07:41;21.30;99.90
10417;DHT22;62605;49.432;8.680;2023-08-12T12:10:13;21.30;99.90
10417;DHT22;62605;49.432;8.680;2023-08-12T12:12:41;21.30;99.90
10417;DHT22;62605;49.432;8.680;2023-08-12T12:15:08;21.30;99.90
10417;DHT22;62605;49.432;8.680;2023-08-12T12:17:40;21.50;99.90
10417;DHT22;62605;49.432;8.680;2023-08-12T12:20:09;21.60;99.90
10417;DHT22;62605;49.432;8.680;2023-08-12T12:22:38;21.70;99.90
10417;DHT22;62605;49.432;8.680;2023-08-12T12:25:10;22.00;99.90
10417;DHT22;62605;49.432;8.680;2023-08-12T12:27:37;22.30;99.90
10417;DHT22;62605;49.432;8.680;2023-08-12T12:30:07;22.50;99.90
10417;DHT22;62605;49.432;8.680;2023-08-12T12:32:34;22.60;99.90
10417;DHT22;62605;49.432;8.680;2023-08-12T12:35:03;22.90;99.90
10417;DHT22;62605;49.432;8.680;2023-08-12T12:37:32;23.00;99.90
10417;DHT22;62605;49.432;8.680;2023-08-12T12:40:00;22.90;99.90
10417;DHT22;62605;49.432;8.680;2023-08-12T12:42:28;23.00;99.90
10417;DHT22;62605;49.432;8.680;2023-08-12T12:44:55;23.30;99.90
10417;DHT22;62605;49.432;8.680;2023-08-12T12:47:22;23.30;99.90
10417;DHT22;62605;49.432;8.680;2023-08-12T12:49:50;23.20;99.90
10417;DHT22;62605;49.432;8.680;2023-08-12T12:52:18;23.50;99.90
10417;DHT22;62605;49.432;8.680;2023-08-12T12:54:45;23.40;99.90
10417;DHT22;62605;49.432;8.680;2023-08-12T12:57:12;23.50;99.90
10417;DHT22;62605;49.432;8.680;2023-08-12T12:59:40;23.50;99.90
10417;DHT22;62605;49.432;8.680;2023-08-12T13:02:07;23.30;99.90
10417;DHT22;62605;49.432;8.680;2023-08-12T13:04:34;23.00;99.90
10417;DHT22;62605;49.432;8.680;2023-08-12T13:07:01;22.70;99.90
10417;DHT22;62605;49.432;8.680;2023-08-12T13:09:30;22.70;99.90
10417;DHT22;62605;49.432;8.680;2023-08-12T13:11:57;22.60;99.90
10417;DHT22;62605;49.432;8.680;2023-08-12T13:14:24;22.50;99.90
10417;DHT22;62605;49.432;8.680;2023-08-12T13:16:51;22.50;99.90
10417;DHT22;62605;49.432;8.680;2023-08-12T13:19:22;22.50;99.90
10417;DHT22;62605;49.432;8.680;2023-08-12T13:21:49;22.50;99.90
10417;DHT22;62605;49.432;8.680;2023-08-12T13:24:19;22.60;99.90
10417;DHT22;62605;49.432;8.680;2023-08-12T13:26:48;22.70;99.90
10417;DHT22;62605;49.432;8.680;2023-08-12T13:29:15;22.70;99.90
10417;DHT22;62605;49.432;8.680;2023-08-12T13:31:42;22.90;99.90
10417;DHT22;62605;49.432;8.680;2023-08-12T13:34:09;22.90;99.90
10417;DHT22;62605;49.432;8.680;2023-08-12T13:36:37;22.90;99.90
10417;DHT22;62605;49.432;8.680;2023-08-12T13:39:04;22.90;99.90
10417;DHT22;62605;49.432;8.680;2023-08-12T13:41:32;22.90;99.90
10417;DHT22;62605;49.432;8.680;2023-08-12T13:44:00;23.00;99.90
10417;DHT22;62605;49.432;8.680;2023-08-12T13:46:28;23.20;99.90
10417;DHT22;62605;49.432;8.680;2023-08-12T13:48:55;23.00;99.90
10417;DHT22;62605;49.432;8.680;2023-08-12T13:51:22;23.00;99.90
10417;DHT22;62605;49.432;8.680;2023-08-12T13:53:49;23.00;99.90
10417;DHT22;62605;49.432;8.680;2023-08-12T13:56:18;22.90;99.90
10417;DHT22;62605;49.432;8.680;2023-08-12T13:58:46;22.70;99.90
10417;DHT22;62605;49.432;8.680;2023-08-12T14:01:15;22.60;99.90
10417;DHT22;62605;49.432;8.680;2023-08-12T14:03:42;22.60;99.90
10417;DHT22;62605;49.432;8.680;2023-08-12T14:06:09;22.50;99.90
10417;DHT22;62605;49.432;8.680;2023-08-12T14:08:36;22.50;99.90
10417;DHT22;62605;49.432;8.680;2023-08-12T14:11:03;22.50;99.90
10417;DHT22;62605;49.432;8.680;2023-08-12T14:13:31;22.60;99.90
10417;DHT22;62605;49.432;8.680;2023-08-12T14:15:58;22.80;99.90
10417;DHT22;62605;49.432;8.680;2023-08-12T14:18:26;23.20;99.90
10417;DHT22;62605;49.432;8.680;2023-08-12T14:20:54;23.60;99.90
10417;DHT22;62605;49.432;8.680;2023-08-12T14:23:22;23.80;99.90
10417;DHT22;62605;49.432;8.680;2023-08-12T14:25:49;23.90;99.90
10417;DHT22;62605;49.432;8.680;2023-08-12T14:28:17;23.80;99.90
10417;DHT22;62605;49.432;8.680;2023-08-12T14:30:44;23.60;99.90
10417;DHT22;62605;49.432;8.680;2023-08-12T14:33:11;23.40;99.90
10417;DHT22;62605;49.432;8.680;2023-08-12T14:35:40;23.30;99.90
10417;DHT22;62605;49.432;8.680;2023-08-12T14:38:07;23.50;99.90
10417;DHT22;62605;49.432;8.680;2023-08-12T14:40:34;23.60;99.90
10417;DHT22;62605;49.432;8.680;2023-08-12T14:43:01;23.60;99.90
10417;DHT22;62605;49.432;8.680;2023-08-12T14:45:29;23.50;99.90
10417;DHT22;62605;49.432;8.680;2023-08-12T14:47:56;23.40;99.90
10417;DHT22;62605;49.432;8.680;2023-08-12T14:50:23;23.20;99.90
10417;DHT22;62605;49.432;8.680;2023-08-12T14:52:52;23.20;99.90
10417;DHT22;62605;49.432;8.680;2023-08-12T14:55:19;23.00;99.90
10417;DHT22;62605;49.432;8.680;2023-08-12T14:57:47;23.00;99.90
10417;DHT22;62605;49.432;8.680;2023-08-12T15:00:14;23.00;99.90
10417;DHT22;62605;49.432;8.680;2023-08-12T15:02:42;23.00;99.90
10417;DHT22;62605;49.432;8.680;2023-08-12T15:05:09;22.90;99.90
10417;DHT22;62605;49.432;8.680;2023-08-12T15:07:38;22.90;99.90
10417;DHT22;62605;49.432;8.680;2023-08-12T15:10:07;22.90;99.90
10417;DHT22;62605;49.432;8.680;2023-08-12T15:12:35;22.80;99.90
10417;DHT22;62605;49.432;8.680;2023-08-12T15:15:03;22.90;99.90
10417;DHT22;62605;49.432;8.680;2023-08-12T15:17:30;22.90;99.90
10417;DHT22;62605;49.432;8.680;2023-08-12T15:19:57;22.90;99.90
10417;DHT22;62605;49.432;8.680;2023-08-12T15:22:25;22.90;99.90
10417;DHT22;62605;49.432;8.680;2023-08-12T15:24:52;23.00;99.90
10417;DHT22;62605;49.432;8.680;2023-08-12T15:27:21;23.10;99.90
10417;DHT22;62605;49.432;8.680;2023-08-12T15:29:48;23.20;99.90
10417;DHT22;62605;49.432;8.680;2023-08-12T15:32:15;23.40;99.90
10417;DHT22;62605;49.432;8.680;2023-08-12T15:34:43;23.60;99.90
10417;DHT22;62605;49.432;8.680;2023-08-12T15:37:10;23.80;99.90
10417;DHT22;62605;49.432;8.680;2023-08-12T15:39:37;23.80;99.90
10417;DHT22;62605;49.432;8.680;2023-08-12T15:42:06;23.90;99.90
10417;DHT22;62605;49.432;8.680;2023-08-12T15:44:34;24.00;99.90
10417;DHT22;62605;49.432;8.680;2023-08-12T15:47:02;24.00;99.90
10417;DHT22;62605;49.432;8.680;2023-08-12T15:49:31;24.20;99.90
10417;DHT22;62605;49.432;8.680;2023-08-12T15:51:59;24.10;99.90
10417;DHT22;62605;49.432;8.680;2023-08-12T15:54:26;24.10;99.90
10417;DHT22;62605;49.432;8.680;2023-08-12T15:56:54;24.10;99.90
10417;DHT22;62605;49.432;8.680;2023-08-12T15:59:22;24.10;99.90
10417;DHT22;62605;49.432;8.680;2023-08-12T16:01:50;24.10;99.90
10417;DHT22;62605;49.432;8.680;2023-08-12T16:04:17;24.20;99.90
10417;DHT22;62605;49.432;8.680;2023-08-12T16:06:45;24.10;99.90
10417;DHT22;62605;49.432;8.680;2023-08-12T16:09:12;24.20;99.90
10417;DHT22;62605;49.432;8.680;2023-08-12T16:11:40;24.10;99.90
10417;DHT22;62605;49.432;8.680;2023-08-12T16:14:07;24.10;99.90
10417;DHT22;62605;49.432;8.680;2023-08-12T16:16:36;23.90;99.90
10417;DHT22;62605;49.432;8.680;2023-08-12T16:19:06;23.70;99.90
10417;DHT22;62605;49.432;8.680;2023-08-12T16:21:33;23.70;99.90
10417;DHT22;62605;49.432;8.680;2023-08-12T16:24:00;23.60;99.90
10417;DHT22;62605;49.432;8.680;2023-08-12T16:26:28;23.60;99.90
10417;DHT22;62605;49.432;8.680;2023-08-12T16:28:55;23.70;99.90
10417;DHT22;62605;49.432;8.680;2023-08-12T16:31:22;23.60;99.90
10417;DHT22;62605;49.432;8.680;2023-08-12T16:33:50;23.70;99.90
10417;DHT22;62605;49.432;8.680;2023-08-12T16:36:18;23.80;99.90
10417;DHT22;62605;49.432;8.680;2023-08-12T16:38:45;24.00;99.90
10417;DHT22;62605;49.432;8.680;2023-08-12T16:41:13;24.20;99.90
10417;DHT22;62605;49.432;8.680;2023-08-12T16:43:42;24.70;99.90
10417;DHT22;62605;49.432;8.680;2023-08-12T16:46:09;25.00;99.90
10417;DHT22;62605;49.432;8.680;2023-08-12T16:48:36;25.40;99.90
10417;DHT22;62605;49.432;8.680;2023-08-12T16:51:03;25.60;99.90
10417;DHT22;62605;49.432;8.680;2023-08-12T16:53:32;25.30;99.90
10417;DHT22;62605;49.432;8.680;2023-08-12T16:55:59;25.40;99.90
10417;DHT22;62605;49.432;8.680;2023-08-12T16:58:26;25.00;99.90
10417;DHT22;62605;49.432;8.680;2023-08-12T17:00:54;24.80;99.90
10417;DHT22;62605;49.432;8.680;2023-08-12T17:03:21;24.50;99.90